Time;durP1;ratioP1;P1;durP2;ratioP2;P2;SDS_P1;SDS_P2;PMS_P1;PMS_P2;Temp;Humidity;BMP_temperature;BMP_pressure;BME280_temperature;BME280_humidity;BME280_pressure;Samples;Min_cycle;Max_cycle;Signal;HPM_P1;HPM_P2
2023/04/09 00:00:35;;;;;;;2.27;2.17;;;4.30;99.90;;;;;;5034248;28;20589;-72
2023/04/09 00:03:01;;;;;;;2.57;2.37;;;4.40;99.90;;;;;;5033825;28;20163;-72
2023/04/09 00:05:27;;;;;;;2.83;2.63;;;4.40;99.90;;;;;;5034041;28;20501;-74
2023/04/09 00:07:53;;;;;;;4.60;4.30;;;4.40;99.90;;;;;;5034101;28;20463;-75
2023/04/09 00:10:19;;;;;;;1.90;1.23;;;4.30;99.90;;;;;;5016125;28;20421;-73
2023/04/09 00:12:44;;;;;;;3.33;3.10;;;4.30;99.90;;;;;;5033914;28;20179;-76
2023/04/09 00:15:10;;;;;;;2.83;1.80;;;4.30;99.90;;;;;;5033792;28;20405;-75
2023/04/09 00:17:36;;;;;;;5.00;3.30;;;4.30;99.90;;;;;;5033982;28;20170;-73
2023/04/09 00:20:02;;;;;;;2.40;2.20;;;4.20;99.90;;;;;;5033804;28;20412;-77
2023/04/09 00:22:28;;;;;;;4.60;3.85;;;4.30;99.90;;;;;;5033667;28;20554;-73
2023/04/09 00:24:54;;;;;;;3.33;2.63;;;4.20;99.90;;;;;;5033600;28;20175;-72
2023/04/09 00:27:20;;;;;;;1.47;1.37;;;4.20;99.90;;;;;;5033829;28;20171;-71
2023/04/09 00:29:46;;;;;;;0.87;0.87;;;4.30;99.90;;;;;;5033787;28;20686;-75
2023/04/09 00:32:12;;;;;;;4.78;2.70;;;4.40;99.90;;;;;;5033737;28;20433;-75
2023/04/09 00:34:38;;;;;;;4.13;2.15;;;4.30;99.90;;;;;;5033297;28;20181;-76
2023/04/09 00:37:04;;;;;;;2.40;2.30;;;4.30;99.90;;;;;;5033576;28;20191;-77
2023/04/09 00:39:30;;;;;;;3.95;3.60;;;4.30;99.90;;;;;;5033537;28;20167;-72
2023/04/09 00:41:57;;;;;;;1.30;1.13;;;4.40;99.90;;;;;;5033439;28;20325;-75
2023/04/09 00:44:22;;;;;;;3.42;3.20;;;4.50;99.90;;;;;;5033195;28;20170;-72
2023/04/09 00:46:48;;;;;;;4.27;3.60;;;4.50;99.90;;;;;;5033428;28;20171;-75
2023/04/09 00:49:14;;;;;;;1.70;1.60;;;4.50;99.90;;;;;;5033347;28;20181;-73
2023/04/09 00:51:40;;;;;;;0.80;0.80;;;4.70;99.90;;;;;;5033204;28;20191;-75
2023/04/09 00:54:06;;;;;;;5.87;5.30;;;4.70;99.90;;;;;;5032859;28;20286;-72
2023/04/09 00:56:33;;;;;;;5.07;4.57;;;4.70;99.90;;;;;;5033199;28;20206;-73
2023/04/09 00:58:59;;;;;;;6.85;2.72;;;4.70;99.90;;;;;;5033121;28;20558;-75
2023/04/09 01:01:25;;;;;;;3.05;2.85;;;4.80;99.90;;;;;;5033011;28;20193;-75
2023/04/09 01:03:50;;;;;;;2.80;2.20;;;4.80;99.90;;;;;;5032958;28;20171;-76
2023/04/09 01:06:35;;;;;;;1.90;1.80;;;4.80;99.90;;;;;;5033176;28;20281;-74
2023/04/09 01:09:06;;;;;;;3.63;3.38;;;4.80;99.90;;;;;;5033071;28;20166;-74
2023/04/09 01:11:42;;;;;;;1.75;1.40;;;4.60;99.90;;;;;;5033196;28;20234;-72
2023/04/09 01:14:35;;;;;;;4.60;4.25;;;4.70;99.90;;;;;;5032882;28;20174;-76
2023/04/09 01:17:15;;;;;;;2.28;1.83;;;4.60;99.90;;;;;;4995771;28;20356;-70
2023/04/09 01:19:56;;;;;;;2.63;2.40;;;4.50;99.90;;;;;;5033135;28;20232;-75
2023/04/09 01:22:31;;;;;;;4.35;3.03;;;4.70;99.90;;;;;;5032924;28;20191;-74
2023/04/09 01:25:06;;;;;;;3.33;2.78;;;4.70;99.90;;;;;;5015130;28;20174;-71
2023/04/09 01:27:43;;;;;;;2.28;1.88;;;4.80;99.90;;;;;;5033160;28;20170;-73
2023/04/09 01:30:10;;;;;;;2.50;2.30;;;4.80;99.90;;;;;;5033086;28;20185;-73
2023/04/09 01:32:37;;;;;;;3.65;3.00;;;4.70;99.90;;;;;;5032858;28;20236;-74
2023/04/09 01:35:04;;;;;;;1.98;1.88;;;4.80;99.90;;;;;;5032580;28;20263;-74
2023/04/09 01:37:30;;;;;;;3.45;2.28;;;4.80;99.90;;;;;;5033071;28;20171;-74
2023/04/09 01:39:56;;;;;;;3.92;3.55;;;4.70;99.90;;;;;;5032898;28;20228;-73
2023/04/09 01:42:22;;;;;;;1.73;1.63;;;4.80;99.90;;;;;;5032745;28;20670;-73
2023/04/09 01:44:47;;;;;;;2.33;2.22;;;4.70;99.90;;;;;;5032664;28;20174;-73
2023/04/09 01:47:14;;;;;;;4.10;1.77;;;4.70;99.90;;;;;;5032656;28;20174;-77
2023/04/09 01:49:40;;;;;;;5.80;2.83;;;4.70;99.90;;;;;;5032780;28;20401;-72
2023/04/09 01:52:06;;;;;;;3.40;3.15;;;4.80;99.90;;;;;;5032626;28;20213;-76
2023/04/09 01:54:32;;;;;;;2.33;2.22;;;4.80;99.90;;;;;;5032572;28;20199;-74
2023/04/09 01:56:57;;;;;;;3.80;3.30;;;4.70;99.90;;;;;;5032789;28;20595;-73
2023/04/09 01:59:23;;;;;;;2.10;2.10;;;4.70;99.90;;;;;;5032818;28;20639;-72
2023/04/09 02:01:53;;;;;;;0.83;0.83;;;4.50;99.90;;;;;;5032475;28;20551;-75
2023/04/09 02:04:23;;;;;;;3.83;3.45;;;4.40;99.90;;;;;;5032690;28;20514;-73
2023/04/09 02:07:14;;;;;;;1.83;1.73;;;4.40;99.90;;;;;;5035983;28;20607;-71
2023/04/09 02:09:40;;;;;;;1.98;1.88;;;4.40;99.90;;;;;;5036187;28;20233;-72
2023/04/09 02:12:11;;;;;;;2.22;1.40;;;4.50;99.90;;;;;;5036211;28;20202;-72
2023/04/09 02:14:37;;;;;;;8.75;3.22;;;4.40;99.90;;;;;;5035892;28;20270;-73
2023/04/09 02:17:03;;;;;;;3.22;3.10;;;4.30;99.90;;;;;;5036120;28;20210;-74
2023/04/09 02:19:57;;;;;;;1.63;1.63;;;4.40;99.90;;;;;;5036002;28;20163;-73
2023/04/09 02:22:23;;;;;;;6.85;3.72;;;4.50;99.90;;;;;;5018664;28;20524;-71
2023/04/09 02:24:49;;;;;;;1.50;1.47;;;4.50;99.90;;;;;;5017921;28;20270;-73
2023/04/09 02:27:15;;;;;;;6.83;2.73;;;4.40;99.90;;;;;;5036001;28;20603;-74
2023/04/09 02:29:40;;;;;;;3.35;1.30;;;4.30;99.90;;;;;;5035960;28;20559;-72
2023/04/09 02:32:06;;;;;;;1.37;1.37;;;4.20;99.90;;;;;;5035686;28;20202;-73
2023/04/09 02:34:32;;;;;;;1.25;1.25;;;4.10;99.90;;;;;;5035606;28;20225;-74
2023/04/09 02:36:58;;;;;;;0.60;0.60;;;4.20;99.90;;;;;;5035656;28;20693;-74
2023/04/09 02:39:23;;;;;;;0.90;0.90;;;4.20;99.90;;;;;;5035553;28;20216;-72
2023/04/09 02:41:49;;;;;;;6.03;2.77;;;4.00;99.90;;;;;;5035505;28;20183;-71
2023/04/09 02:44:15;;;;;;;12.37;5.10;;;4.00;99.90;;;;;;5035442;28;20631;-74
2023/04/09 02:46:41;;;;;;;1.00;0.97;;;4.00;99.90;;;;;;5035796;28;20525;-72
2023/04/09 02:49:06;;;;;;;3.63;3.33;;;4.00;99.90;;;;;;5035568;28;20265;-75
2023/04/09 02:51:35;;;;;;;0.93;0.93;;;3.90;99.90;;;;;;5035503;28;20236;-74
2023/04/09 02:54:01;;;;;;;3.33;3.17;;;3.80;99.90;;;;;;5035158;28;20174;-74
2023/04/09 02:56:27;;;;;;;4.03;3.10;;;3.70;99.90;;;;;;5017411;28;20346;-72
2023/04/09 02:58:54;;;;;;;2.70;2.50;;;3.70;99.90;;;;;;5035277;28;20198;-75
2023/04/09 03:01:20;;;;;;;1.30;1.30;;;3.80;99.90;;;;;;5035151;28;20283;-74
2023/04/09 03:03:46;;;;;;;2.00;1.17;;;4.40;99.90;;;;;;5034976;28;20242;-75
2023/04/09 03:06:11;;;;;;;1.95;1.50;;;4.00;99.90;;;;;;5035239;28;20441;-75
2023/04/09 03:08:37;;;;;;;0.83;0.83;;;3.70;99.90;;;;;;5034985;28;20206;-75
2023/04/09 03:11:03;;;;;;;1.37;1.37;;;3.90;99.90;;;;;;5034867;28;20632;-72
2023/04/09 03:13:29;;;;;;;1.10;1.10;;;3.60;99.90;;;;;;5034803;28;20214;-73
2023/04/09 03:15:54;;;;;;;3.33;1.13;;;3.50;99.90;;;;;;5034690;28;20195;-76
2023/04/09 03:18:20;;;;;;;0.60;0.60;;;3.90;99.90;;;;;;5035142;28;20402;-75
2023/04/09 03:20:46;;;;;;;0.93;0.93;;;3.70;99.90;;;;;;5017203;28;20190;-75
2023/04/09 03:23:11;;;;;;;1.73;1.67;;;3.60;99.90;;;;;;5034630;28;20628;-73
2023/04/09 03:25:37;;;;;;;1.63;1.50;;;3.40;99.90;;;;;;5034927;28;20705;-75
2023/04/09 03:28:03;;;;;;;2.43;1.37;;;3.40;99.90;;;;;;5034733;28;20666;-74
2023/04/09 03:30:29;;;;;;;1.73;1.63;;;3.40;99.90;;;;;;5034710;28;20175;-73
2023/04/09 03:32:54;;;;;;;1.75;1.00;;;3.40;99.90;;;;;;5034713;28;20166;-73
2023/04/09 03:35:20;;;;;;;6.57;1.93;;;3.60;99.90;;;;;;5034567;28;20696;-72
2023/04/09 03:37:46;;;;;;;2.17;2.07;;;3.50;99.90;;;;;;5034501;28;20166;-75
2023/04/09 03:40:12;;;;;;;3.40;2.08;;;3.40;99.90;;;;;;5034481;28;20413;-75
2023/04/09 03:42:38;;;;;;;4.13;1.60;;;3.40;99.90;;;;;;5034347;28;20556;-74
2023/04/09 03:45:04;;;;;;;0.90;0.90;;;3.30;99.90;;;;;;5034309;28;20189;-71
2023/04/09 03:47:31;;;;;;;4.38;2.75;;;3.20;99.90;;;;;;5034552;28;20260;-74
2023/04/09 03:49:57;;;;;;;2.15;1.70;;;3.20;99.90;;;;;;5034418;28;20185;-74
2023/04/09 03:52:23;;;;;;;2.13;2.00;;;3.10;99.90;;;;;;5034173;28;20271;-74
2023/04/09 03:54:48;;;;;;;2.50;2.37;;;3.20;99.90;;;;;;5033992;28;20418;-73
2023/04/09 03:57:14;;;;;;;2.00;0.90;;;3.20;99.90;;;;;;5034282;28;20646;-74
2023/04/09 03:59:39;;;;;;;2.20;2.00;;;3.10;99.90;;;;;;5034029;28;20182;-76
2023/04/09 04:02:05;;;;;;;2.57;2.47;;;3.20;99.90;;;;;;5033908;28;20197;-75
2023/04/09 04:04:31;;;;;;;7.93;1.80;;;3.00;99.90;;;;;;5033774;28;20174;-73
2023/04/09 04:06:56;;;;;;;1.40;1.33;;;3.00;99.90;;;;;;5034313;28;20209;-71
2023/04/09 04:09:22;;;;;;;2.63;2.53;;;2.90;99.90;;;;;;5033942;28;20195;-76
2023/04/09 04:11:47;;;;;;;1.47;1.13;;;2.80;99.90;;;;;;5033797;28;20650;-75
2023/04/09 04:14:14;;;;;;;0.63;0.63;;;2.90;99.90;;;;;;5033866;28;20182;-76
2023/04/09 04:16:40;;;;;;;1.40;0.55;;;2.90;99.90;;;;;;5034133;28;20621;-75
2023/04/09 04:19:06;;;;;;;0.45;0.45;;;2.90;99.90;;;;;;5033904;28;20178;-74
2023/04/09 04:21:31;;;;;;;0.50;0.50;;;3.00;99.90;;;;;;5033845;28;20685;-75
2023/04/09 04:23:57;;;;;;;2.50;1.70;;;2.90;99.90;;;;;;5033480;28;20806;-74
2023/04/09 04:26:23;;;;;;;0.60;0.60;;;3.00;99.90;;;;;;5033775;28;20728;-76
2023/04/09 04:28:48;;;;;;;2.00;1.57;;;2.90;99.90;;;;;;5015407;28;20178;-72
2023/04/09 04:31:17;;;;;;;1.90;1.80;;;3.00;99.90;;;;;;5033517;28;20190;-74
2023/04/09 04:33:42;;;;;;;0.45;0.45;;;2.60;99.90;;;;;;5033304;28;20638;-73
2023/04/09 04:36:13;;;;;;;0.87;0.87;;;2.60;99.90;;;;;;5033362;28;20213;-74
2023/04/09 04:38:40;;;;;;;3.53;2.83;;;2.60;99.90;;;;;;5033698;28;20517;-75
2023/04/09 04:41:06;;;;;;;1.50;1.38;;;2.60;99.90;;;;;;5033370;28;20194;-73
2023/04/09 04:43:31;;;;;;;0.40;0.40;;;2.60;99.90;;;;;;5033271;28;20642;-74
2023/04/09 04:45:58;;;;;;;1.43;1.33;;;2.60;99.90;;;;;;5033475;28;20276;-72
2023/04/09 04:48:23;;;;;;;0.40;0.40;;;3.50;99.90;;;;;;5033430;28;20179;-73
2023/04/09 04:51:00;;;;;;;0.73;0.73;;;2.70;99.90;;;;;;5033158;28;20202;-73
2023/04/09 04:53:26;;;;;;;0.82;0.82;;;2.70;99.90;;;;;;5033112;28;20808;-71
2023/04/09 04:55:52;;;;;;;2.60;2.50;;;2.60;99.90;;;;;;5033229;28;20224;-70
2023/04/09 04:58:18;;;;;;;2.25;2.15;;;2.60;99.90;;;;;;5033282;28;20758;-74
2023/04/09 05:00:44;;;;;;;0.30;0.30;;;2.60;99.90;;;;;;5033080;28;20189;-71
2023/04/09 05:03:09;;;;;;;1.90;1.08;;;2.50;99.90;;;;;;5032952;28;20436;-73
2023/04/09 05:05:35;;;;;;;1.87;1.77;;;2.50;99.90;;;;;;5033300;28;20214;-71
2023/04/09 05:08:01;;;;;;;1.77;1.67;;;2.50;99.90;;;;;;5033134;28;20209;-77
2023/04/09 05:10:26;;;;;;;0.80;0.80;;;2.60;99.90;;;;;;5033073;28;20189;-74
2023/04/09 05:12:52;;;;;;;1.30;1.00;;;2.60;99.90;;;;;;5032838;28;20258;-72
2023/04/09 05:15:18;;;;;;;0.60;0.60;;;2.60;99.90;;;;;;5032971;28;20528;-72
2023/04/09 05:17:43;;;;;;;4.57;1.20;;;2.70;99.90;;;;;;5032941;28;20173;-73
2023/04/09 05:20:10;;;;;;;2.80;2.70;;;2.80;99.90;;;;;;5032970;28;20167;-73
2023/04/09 05:22:36;;;;;;;0.60;0.60;;;2.60;99.90;;;;;;5032505;28;20535;-74
2023/04/09 05:25:02;;;;;;;0.50;0.50;;;2.80;99.90;;;;;;5032683;28;20193;-74
2023/04/09 05:27:28;;;;;;;1.85;1.08;;;3.00;99.90;;;;;;5033023;28;20178;-73
2023/04/09 05:29:54;;;;;;;3.00;1.85;;;3.10;99.90;;;;;;5033041;28;20182;-73
2023/04/09 05:32:19;;;;;;;1.53;1.07;;;3.10;99.90;;;;;;5032816;28;20239;-74
2023/04/09 05:34:45;;;;;;;2.90;2.60;;;3.20;99.90;;;;;;5032810;28;20486;-73
2023/04/09 05:37:11;;;;;;;1.67;1.67;;;3.30;99.90;;;;;;5032832;28;20563;-74
2023/04/09 05:39:37;;;;;;;1.37;0.57;;;3.30;99.90;;;;;;5032923;28;20417;-75
2023/04/09 05:42:02;;;;;;;3.20;1.83;;;3.20;99.90;;;;;;5036727;28;20262;-74
2023/04/09 05:44:28;;;;;;;1.83;1.20;;;3.20;99.90;;;;;;5036389;28;20178;-72
2023/04/09 05:46:53;;;;;;;0.60;0.60;;;3.30;99.90;;;;;;5036561;28;20806;-72
2023/04/09 05:49:19;;;;;;;0.40;0.40;;;3.40;99.90;;;;;;5036598;28;20182;-73
2023/04/09 05:51:45;;;;;;;0.40;0.40;;;3.50;99.90;;;;;;5036415;28;20217;-73
2023/04/09 05:54:11;;;;;;;1.27;1.17;;;3.60;99.90;;;;;;5036364;28;20175;-70
2023/04/09 05:56:36;;;;;;;1.10;1.10;;;3.80;99.90;;;;;;5036458;28;20456;-76
2023/04/09 05:59:02;;;;;;;1.47;1.37;;;4.00;99.90;;;;;;5036506;28;20213;-76
2023/04/09 06:01:28;;;;;;;1.40;1.37;;;4.30;99.90;;;;;;5036223;28;20205;-74
2023/04/09 06:03:54;;;;;;;1.10;1.00;;;4.40;99.90;;;;;;5036129;28;20673;-74
2023/04/09 06:06:22;;;;;;;2.93;1.33;;;4.80;99.90;;;;;;5036402;28;20294;-76
2023/04/09 06:08:48;;;;;;;4.90;4.60;;;5.30;99.90;;;;;;5036382;28;20733;-73
2023/04/09 06:11:13;;;;;;;3.53;3.33;;;5.50;99.90;;;;;;5036090;28;20297;-75
2023/04/09 06:13:39;;;;;;;3.90;3.70;;;5.50;99.70;;;;;;5035906;28;20220;-76
2023/04/09 06:16:08;;;;;;;0.93;0.93;;;5.20;99.40;;;;;;5035953;28;20274;-74
2023/04/09 06:18:34;;;;;;;1.05;1.05;;;5.30;99.00;;;;;;5036058;28;20171;-76
2023/04/09 06:21:09;;;;;;;2.83;2.53;;;5.20;98.60;;;;;;5035841;28;20277;-78
2023/04/09 06:23:35;;;;;;;0.80;0.80;;;5.40;99.20;;;;;;5035844;28;20151;-77
2023/04/09 06:26:01;;;;;;;0.85;0.85;;;5.80;99.60;;;;;;5036029;28;20182;-74
2023/04/09 06:28:28;;;;;;;3.38;2.50;;;6.00;99.40;;;;;;5035934;28;20632;-70
2023/04/09 06:30:54;;;;;;;2.47;2.38;;;5.90;98.10;;;;;;5035691;28;20206;-73
2023/04/09 06:33:20;;;;;;;4.93;2.40;;;5.80;98.50;;;;;;5035599;28;20173;-74
2023/04/09 06:35:47;;;;;;;1.40;1.27;;;6.00;97.90;;;;;;5035808;28;20445;-73
2023/04/09 06:38:13;;;;;;;3.42;1.65;;;6.40;96.80;;;;;;5035859;28;20175;-73
2023/04/09 06:40:39;;;;;;;1.65;1.58;;;6.70;96.50;;;;;;5035733;28;20283;-72
2023/04/09 06:43:05;;;;;;;2.50;1.53;;;7.00;96.20;;;;;;5035375;28;20224;-74
2023/04/09 06:45:32;;;;;;;1.50;1.40;;;7.20;95.70;;;;;;5035786;28;20197;-74
2023/04/09 06:47:58;;;;;;;5.43;2.65;;;7.40;95.70;;;;;;5035556;28;20182;-74
2023/04/09 06:50:24;;;;;;;7.82;1.83;;;7.60;94.90;;;;;;5035577;28;20167;-76
2023/04/09 06:52:53;;;;;;;3.20;1.37;;;8.50;95.20;;;;;;5034900;28;20198;-74
2023/04/09 06:55:19;;;;;;;3.13;2.92;;;9.90;91.90;;;;;;5035392;28;20525;-75
2023/04/09 06:57:44;;;;;;;1.17;1.17;;;10.40;88.40;;;;;;5035308;28;20178;-72
2023/04/09 07:00:11;;;;;;;2.63;2.43;;;10.90;85.80;;;;;;5035300;28;20623;-77
2023/04/09 07:02:36;;;;;;;1.87;1.73;;;11.10;83.20;;;;;;5035308;28;20187;-72
2023/04/09 07:05:05;;;;;;;3.80;3.50;;;11.20;82.70;;;;;;5035048;28;20406;-77
2023/04/09 07:07:30;;;;;;;5.07;2.13;;;11.60;84.10;;;;;;5035213;28;20171;-74
2023/04/09 07:09:56;;;;;;;3.50;3.30;;;12.20;79.00;;;;;;5035025;28;20964;-75
2023/04/09 07:12:29;;;;;;;2.37;2.20;;;12.90;79.90;;;;;;5034853;28;20736;-74
2023/04/09 07:15:04;;;;;;;3.07;1.47;;;14.30;73.90;;;;;;5034814;28;20182;-78
2023/04/09 07:17:33;;;;;;;2.87;2.77;;;15.70;68.50;;;;;;5034940;28;20463;-77
2023/04/09 07:19:59;;;;;;;1.33;1.13;;;16.80;60.70;;;;;;5035138;28;20485;-74
2023/04/09 07:22:26;;;;;;;2.50;1.43;;;16.60;59.60;;;;;;5016925;28;20576;-73
2023/04/09 07:24:54;;;;;;;1.43;1.33;;;17.10;57.80;;;;;;5034596;28;20171;-73
2023/04/09 07:27:24;;;;;;;2.87;2.67;;;18.00;55.90;;;;;;5034771;28;20499;-74
2023/04/09 07:29:50;;;;;;;1.40;1.33;;;19.40;52.90;;;;;;5034972;28;20394;-72
2023/04/09 07:32:16;;;;;;;1.97;1.50;;;20.90;50.20;;;;;;5034563;28;20403;-74
2023/04/09 07:34:43;;;;;;;1.60;1.50;;;22.10;46.90;;;;;;5034377;28;20198;-73
2023/04/09 07:37:08;;;;;;;2.40;1.00;;;23.20;45.00;;;;;;5034534;28;20198;-75
2023/04/09 07:39:34;;;;;;;1.17;1.00;;;24.40;40.40;;;;;;5034672;28;20416;-76
2023/04/09 07:42:03;;;;;;;1.73;1.40;;;24.90;38.30;;;;;;5034339;28;20191;-74
2023/04/09 07:44:33;;;;;;;1.00;1.00;;;25.30;37.00;;;;;;5034383;28;20221;-72
2023/04/09 07:46:59;;;;;;;0.80;0.80;;;25.60;37.20;;;;;;5034497;28;20460;-71
2023/04/09 07:49:25;;;;;;;1.70;1.00;;;26.30;35.60;;;;;;5034184;28;20402;-73
2023/04/09 07:51:51;;;;;;;2.10;1.17;;;26.70;31.50;;;;;;5034183;28;20429;-75
2023/04/09 07:54:16;;;;;;;0.73;0.73;;;26.70;32.10;;;;;;5034038;28;20178;-72
2023/04/09 07:56:42;;;;;;;1.20;1.00;;;26.00;31.60;;;;;;5034179;28;20559;-73
2023/04/09 07:59:07;;;;;;;2.87;0.83;;;25.60;33.60;;;;;;5034229;28;20297;-74
2023/04/09 08:01:33;;;;;;;1.03;0.60;;;26.40;32.50;;;;;;5034007;28;20218;-77
2023/04/09 08:04:01;;;;;;;1.00;0.90;;;26.60;30.00;;;;;;5032932;28;20199;-71
2023/04/09 08:06:27;;;;;;;2.43;1.20;;;26.30;29.60;;;;;;5034146;28;20409;-76
2023/04/09 08:08:52;;;;;;;0.93;0.90;;;23.80;30.40;;;;;;5033968;28;20406;-75
2023/04/09 08:11:23;;;;;;;1.33;1.23;;;22.20;32.50;;;;;;5033711;28;20948;-74
2023/04/09 08:13:50;;;;;;;0.70;0.70;;;21.90;33.80;;;;;;5033786;28;20162;-72
2023/04/09 08:16:16;;;;;;;1.10;0.60;;;22.00;32.80;;;;;;5033618;28;20511;-73
2023/04/09 08:18:41;;;;;;;6.10;1.10;;;22.00;33.30;;;;;;5033858;28;20826;-75
2023/04/09 08:21:07;;;;;;;0.77;0.77;;;22.40;31.90;;;;;;5033715;28;20277;-75
2023/04/09 08:23:33;;;;;;;0.80;0.70;;;22.20;31.20;;;;;;5033585;28;20175;-73
2023/04/09 08:25:58;;;;;;;0.80;0.70;;;22.20;31.80;;;;;;5033668;28;20177;-73
2023/04/09 08:28:24;;;;;;;0.80;0.80;;;22.30;31.60;;;;;;5033620;28;20254;-73
2023/04/09 08:30:49;;;;;;;0.73;0.70;;;22.60;30.60;;;;;;5033564;28;20194;-73
2023/04/09 08:33:16;;;;;;;0.90;0.67;;;22.30;29.80;;;;;;5033283;28;20179;-73
2023/04/09 08:35:42;;;;;;;1.00;1.00;;;21.90;29.60;;;;;;5033332;28;20202;-71
2023/04/09 08:38:07;;;;;;;1.10;1.00;;;21.40;30.20;;;;;;5033386;28;20412;-74
2023/04/09 08:40:34;;;;;;;0.37;0.37;;;21.10;32.00;;;;;;5033276;28;20406;-71
2023/04/09 08:43:05;;;;;;;0.60;0.60;;;21.10;31.30;;;;;;5033112;28;20221;-73
2023/04/09 08:45:30;;;;;;;1.10;1.00;;;20.80;33.00;;;;;;5015806;28;20548;-74
2023/04/09 08:47:58;;;;;;;0.73;0.73;;;21.60;31.10;;;;;;5033303;28;20846;-75
2023/04/09 08:50:31;;;;;;;0.40;0.40;;;21.20;30.60;;;;;;5015376;28;20635;-73
2023/04/09 08:52:58;;;;;;;2.20;1.23;;;20.00;31.00;;;;;;5033286;28;20896;-73
2023/04/09 08:55:24;;;;;;;0.87;0.87;;;19.50;32.10;;;;;;5033156;28;20759;-75
2023/04/09 08:57:49;;;;;;;0.87;0.73;;;20.00;32.80;;;;;;5033156;28;20886;-73
2023/04/09 09:00:15;;;;;;;0.87;0.87;;;20.60;33.60;;;;;;5015467;28;20412;-74
2023/04/09 09:03:03;;;;;;;0.50;0.50;;;20.60;31.60;;;;;;5032840;28;20221;-74
2023/04/09 09:05:34;;;;;;;1.03;1.00;;;19.20;33.80;;;;;;5033096;28;20170;-74
2023/04/09 09:08:01;;;;;;;1.20;1.10;;;18.20;35.90;;;;;;5033200;28;20401;-74
2023/04/09 09:10:40;;;;;;;1.80;0.70;;;19.00;34.50;;;;;;5032703;28;20428;-74
2023/04/09 09:13:21;;;;;;;0.80;0.63;;;18.80;35.90;;;;;;5032784;28;20839;-75
2023/04/09 09:15:49;;;;;;;0.60;0.60;;;18.50;34.70;;;;;;5036730;28;20495;-75
2023/04/09 09:18:16;;;;;;;2.10;1.47;;;18.20;35.70;;;;;;5037003;28;20409;-72
2023/04/09 09:20:41;;;;;;;1.20;0.90;;;18.80;34.70;;;;;;5036995;28;20835;-75
2023/04/09 09:23:07;;;;;;;1.37;0.90;;;18.80;35.50;;;;;;5036737;28;20442;-75
2023/04/09 09:25:42;;;;;;;0.90;0.90;;;19.20;34.40;;;;;;5036989;28;20195;-72
2023/04/09 09:28:10;;;;;;;0.87;0.87;;;19.30;35.00;;;;;;5036889;28;20459;-72
2023/04/09 09:30:38;;;;;;;0.63;0.50;;;19.70;33.60;;;;;;5036920;28;20407;-74
2023/04/09 09:33:10;;;;;;;0.63;0.50;;;19.50;33.50;;;;;;5036508;28;20416;-76
2023/04/09 09:35:50;;;;;;;0.83;0.63;;;20.40;34.30;;;;;;5036757;28;20767;-77
2023/04/09 09:38:17;;;;;;;0.70;0.63;;;21.20;33.10;;;;;;5036452;28;20438;-75
2023/04/09 09:40:43;;;;;;;0.63;0.63;;;21.30;33.60;;;;;;5036401;28;20420;-73
2023/04/09 09:43:09;;;;;;;1.00;0.97;;;21.90;32.40;;;;;;5036277;28;20459;-77
2023/04/09 09:45:36;;;;;;;0.63;0.63;;;22.60;31.60;;;;;;5036478;28;20496;-76
2023/04/09 09:48:03;;;;;;;1.17;1.17;;;22.00;33.10;;;;;;5036302;28;20402;-75
2023/04/09 09:50:31;;;;;;;0.77;0.77;;;21.90;31.50;;;;;;5036259;28;20417;-72
2023/04/09 09:53:07;;;;;;;0.77;0.63;;;21.90;31.20;;;;;;5036183;28;20459;-76
2023/04/09 09:55:37;;;;;;;1.57;1.47;;;22.10;31.80;;;;;;5036555;28;20402;-74
2023/04/09 09:58:30;;;;;;;0.77;0.77;;;22.00;32.70;;;;;;5036070;28;20467;-74
2023/04/09 10:00:57;;;;;;;0.73;0.73;;;21.90;32.50;;;;;;5025581;28;20840;-72
2023/04/09 10:03:26;;;;;;;0.73;0.70;;;22.30;32.40;;;;;;5035761;28;20406;-75
2023/04/09 10:05:54;;;;;;;0.70;0.70;;;23.10;32.90;;;;;;5018147;28;20461;-76
2023/04/09 10:08:21;;;;;;;1.33;1.17;;;22.90;31.50;;;;;;5036271;28;20380;-72
2023/04/09 10:10:48;;;;;;;1.47;1.37;;;22.20;32.10;;;;;;5035829;28;20460;-73
2023/04/09 10:13:28;;;;;;;1.73;1.63;;;21.30;32.10;;;;;;5035760;28;20552;-74
2023/04/09 10:15:55;;;;;;;1.53;0.90;;;20.70;34.90;;;;;;5035899;28;20455;-74
2023/04/09 10:18:21;;;;;;;1.47;0.63;;;20.40;35.60;;;;;;5036008;28;20402;-75
2023/04/09 10:21:02;;;;;;;0.80;0.80;;;19.70;35.00;;;;;;5036023;28;20432;-76
2023/04/09 10:23:47;;;;;;;0.60;0.60;;;18.00;37.40;;;;;;5035616;28;20397;-74
2023/04/09 10:26:12;;;;;;;1.07;1.07;;;17.70;39.70;;;;;;5035234;28;20408;-72
2023/04/09 10:28:38;;;;;;;0.80;0.80;;;18.10;39.30;;;;;;5035926;28;20406;-73
2023/04/09 10:31:06;;;;;;;0.80;0.80;;;19.00;37.50;;;;;;5036115;28;20206;-74
2023/04/09 10:33:32;;;;;;;0.80;0.80;;;19.80;36.40;;;;;;5035605;28;20417;-71
2023/04/09 10:36:12;;;;;;;1.00;1.00;;;19.70;35.20;;;;;;5035668;28;20535;-72
2023/04/09 10:38:45;;;;;;;0.60;0.60;;;19.40;36.20;;;;;;5035581;28;20432;-75
2023/04/09 10:41:16;;;;;;;1.50;1.27;;;19.30;36.30;;;;;;5035518;28;20440;-74
2023/04/09 10:43:42;;;;;;;1.10;1.00;;;19.30;37.30;;;;;;5035363;28;20414;-75
2023/04/09 10:46:26;;;;;;;0.73;0.73;;;19.30;36.70;;;;;;5035547;28;20815;-74
2023/04/09 10:49:22;;;;;;;1.80;1.27;;;19.10;36.80;;;;;;5035585;28;20411;-74
2023/04/09 10:52:02;;;;;;;0.90;0.90;;;18.50;37.50;;;;;;5035269;28;20482;-77
2023/04/09 10:54:33;;;;;;;1.27;1.17;;;17.60;36.80;;;;;;5035159;28;20409;-74
2023/04/09 10:57:20;;;;;;;1.30;0.80;;;17.00;38.00;;;;;;5035360;28;20940;-76
2023/04/09 10:59:50;;;;;;;1.73;1.60;;;16.90;39.30;;;;;;5035638;28;20417;-73
2023/04/09 11:02:37;;;;;;;0.57;0.57;;;17.00;39.10;;;;;;5035078;28;20461;-77
2023/04/09 11:05:23;;;;;;;2.50;1.43;;;16.50;41.70;;;;;;5035049;28;20759;-72
2023/04/09 11:08:04;;;;;;;0.77;0.63;;;16.00;40.80;;;;;;5035505;28;20406;-74
2023/04/09 11:10:31;;;;;;;1.07;1.07;;;15.30;41.90;;;;;;5035012;28;20436;-75
2023/04/09 11:12:57;;;;;;;1.07;0.97;;;15.10;42.20;;;;;;5035000;28;20479;-74
2023/04/09 11:15:22;;;;;;;1.60;0.70;;;14.70;42.60;;;;;;5035045;28;20900;-74
2023/04/09 11:17:48;;;;;;;2.10;1.37;;;14.40;43.50;;;;;;5034851;28;20205;-74
2023/04/09 11:20:19;;;;;;;0.77;0.77;;;14.30;44.20;;;;;;5034787;28;20172;-73
2023/04/09 11:22:45;;;;;;;0.43;0.43;;;14.40;45.40;;;;;;5034825;28;20438;-75
2023/04/09 11:25:18;;;;;;;1.00;1.00;;;14.70;45.10;;;;;;5034679;28;20759;-77
2023/04/09 11:27:45;;;;;;;1.80;0.83;;;14.20;44.20;;;;;;5034798;28;20168;-74
2023/04/09 11:30:11;;;;;;;0.93;0.80;;;14.10;45.50;;;;;;5034623;28;20459;-74
2023/04/09 11:32:36;;;;;;;1.90;1.40;;;14.00;44.20;;;;;;5034684;28;21006;-71
2023/04/09 11:35:02;;;;;;;1.53;0.83;;;13.70;46.90;;;;;;5034605;28;20402;-78
2023/04/09 11:37:28;;;;;;;0.90;0.90;;;13.60;46.20;;;;;;5034561;28;20210;-74
2023/04/09 11:39:54;;;;;;;0.67;0.67;;;13.90;46.10;;;;;;5034536;28;20886;-74
2023/04/09 11:42:24;;;;;;;1.67;1.57;;;14.30;46.90;;;;;;5034284;28;20434;-74
2023/04/09 11:44:51;;;;;;;1.37;1.10;;;14.30;45.30;;;;;;5034493;28;20256;-75
2023/04/09 11:47:18;;;;;;;1.63;1.03;;;14.20;45.90;;;;;;5016475;28;20417;-76
2023/04/09 11:49:46;;;;;;;2.60;2.40;;;13.90;47.70;;;;;;5034270;28;20410;-72
2023/04/09 11:52:12;;;;;;;1.73;1.60;;;13.90;45.30;;;;;;5034146;28;20545;-72
2023/04/09 11:54:38;;;;;;;1.17;0.70;;;14.00;45.40;;;;;;5034174;28;20425;-72
2023/04/09 11:57:04;;;;;;;0.80;0.80;;;14.20;44.80;;;;;;5034232;28;20449;-74
2023/04/09 11:59:30;;;;;;;1.57;1.40;;;14.30;44.10;;;;;;5034269;28;20174;-77
2023/04/09 12:01:59;;;;;;;0.60;0.60;;;14.50;45.20;;;;;;5034117;28;20429;-71
2023/04/09 12:04:25;;;;;;;0.70;0.70;;;14.90;44.50;;;;;;5034132;28;20178;-74
2023/04/09 12:06:55;;;;;;;0.80;0.80;;;15.20;44.00;;;;;;5016198;28;20424;-75
2023/04/09 12:09:21;;;;;;;1.97;0.97;;;15.40;42.30;;;;;;5033950;28;20187;-75
2023/04/09 12:11:47;;;;;;;0.93;0.63;;;15.10;42.30;;;;;;5033827;28;20438;-73
2023/04/09 12:14:15;;;;;;;0.50;0.50;;;14.80;43.60;;;;;;5033606;28;20411;-73
2023/04/09 12:16:42;;;;;;;2.00;1.67;;;14.40;44.10;;;;;;5033711;28;20198;-75
2023/04/09 12:19:10;;;;;;;1.00;1.00;;;13.70;44.70;;;;;;5016014;28;20501;-76
2023/04/09 12:21:49;;;;;;;0.87;0.87;;;13.50;44.80;;;;;;5033703;28;20964;-73
2023/04/09 12:24:16;;;;;;;0.50;0.50;;;13.60;44.80;;;;;;5033552;28;20893;-72
2023/04/09 12:26:45;;;;;;;2.83;1.40;;;13.60;44.60;;;;;;5033990;28;20405;-76
2023/04/09 12:29:16;;;;;;;0.80;0.80;;;13.50;45.40;;;;;;5033677;28;20445;-73
2023/04/09 12:31:42;;;;;;;1.67;0.77;;;13.50;45.60;;;;;;5033667;28;20445;-76
2023/04/09 12:34:08;;;;;;;0.83;0.83;;;13.70;46.10;;;;;;5033606;28;20419;-75
2023/04/09 12:36:34;;;;;;;1.40;1.30;;;14.10;46.20;;;;;;5033533;28;20475;-73
2023/04/09 12:39:00;;;;;;;0.97;0.97;;;14.10;45.60;;;;;;5033613;28;20401;-73
2023/04/09 12:41:25;;;;;;;1.70;1.60;;;13.80;45.40;;;;;;5033321;28;20194;-75
2023/04/09 12:43:51;;;;;;;0.80;0.80;;;13.70;45.50;;;;;;5033237;28;20402;-74
2023/04/09 12:46:18;;;;;;;0.60;0.60;;;13.50;45.80;;;;;;5033630;28;20192;-77
2023/04/09 12:48:44;;;;;;;0.93;0.60;;;13.30;46.40;;;;;;5033571;28;20230;-73
2023/04/09 12:51:11;;;;;;;0.57;0.57;;;13.00;46.60;;;;;;5033552;28;20806;-76
2023/04/09 12:53:36;;;;;;;0.83;0.80;;;12.80;47.10;;;;;;5033193;28;20417;-73
2023/04/09 12:56:02;;;;;;;0.70;0.70;;;12.80;47.30;;;;;;5033379;28;20453;-71